Time;durP1;ratioP1;P1;durP2;ratioP2;P2;SDS_P1;SDS_P2;PMS_P1;PMS_P2;Temp;Humidity;BMP_temperature;BMP_pressure;BME280_temperature;BME280_humidity;BME280_pressure;Samples;Min_cycle;Max_cycle;Signal;HPM_P1;HPM_P2
2022/09/22 00:00:56;;;;;;;;;6.67;6.00;;;;;16.85;43.99;101765.84;5054454;28;45481;-74
2022/09/22 00:03:21;;;;;;;;;9.25;6.50;;;;;16.66;44.06;101737.56;5049148;28;45435;-76
2022/09/22 00:05:46;;;;;;;;;7.33;7.33;;;;;16.75;44.67;101756.63;5054253;28;45505;-72
2022/09/22 00:08:11;;;;;;;;;5.00;5.00;;;;;16.50;44.28;101717.50;5054207;28;45695;-72
2022/09/22 00:10:37;;;;;;;;;11.00;7.75;;;;;16.52;44.69;101726.56;5053992;28;51200;-71
2022/09/22 00:13:02;;;;;;;;;7.75;7.25;;;;;16.49;45.01;101734.59;5055639;28;45486;-75
2022/09/22 00:15:29;;;;;;;;;4.00;4.00;;;;;16.59;44.68;101756.34;5056649;28;45658;-76
2022/09/22 00:17:54;;;;;;;;;7.00;5.67;;;;;16.55;45.07;101756.28;5056404;28;46509;-72
2022/09/22 00:20:20;;;;;;;;;8.75;4.75;;;;;16.51;44.93;101766.09;5055669;28;45374;-73
2022/09/22 00:22:49;;;;;;;;;9.75;7.25;;;;;16.34;45.12;101733.44;5054422;28;45895;-75
2022/09/22 00:25:15;;;;;;;;;12.75;7.25;;;;;16.38;45.48;101754.19;5053140;28;45403;-75
2022/09/22 00:27:41;;;;;;;;;10.00;8.67;;;;;16.44;44.90;101753.38;5053655;28;46937;-72
2022/09/22 00:30:07;;;;;;;;;6.75;6.75;;;;;16.43;45.21;101747.97;5054021;28;45431;-74
2022/09/22 00:32:32;;;;;;;;;4.33;4.33;;;;;16.48;45.57;101757.97;5054007;28;45297;-74
2022/09/22 00:34:58;;;;;;;;;10.50;7.50;;;;;16.44;45.29;101748.00;5053850;28;45535;-74
2022/09/22 00:37:23;;;;;;;;;8.75;6.00;;;;;16.01;45.31;101674.41;5053939;28;46164;-75
2022/09/22 00:39:48;;;;;;;;;6.33;6.33;;;;;16.17;45.30;101713.34;5053938;28;45420;-75
2022/09/22 00:42:14;;;;;;;;;6.33;6.33;;;;;16.32;45.13;101745.97;5054045;28;57572;-69
2022/09/22 00:44:42;;;;;;;;;8.50;7.00;;;;;15.87;45.27;101679.50;5054576;28;45313;-73
2022/09/22 00:47:32;;;;;;;;;9.00;7.75;;;;;16.30;45.63;101752.22;5053660;28;45589;-75
2022/09/22 00:50:02;;;;;;;;;6.67;6.67;;;;;16.31;45.59;101754.94;5053837;28;45458;-73
2022/09/22 00:52:34;;;;;;;;;5.67;5.67;;;;;16.33;45.40;101755.91;5054150;28;45376;-74
2022/09/22 00:55:03;;;;;;;;;10.50;8.50;;;;;16.32;45.75;101743.28;5048318;28;45369;-74
2022/09/22 00:57:32;;;;;;;;;10.00;6.33;;;;;16.35;45.79;101756.84;5069055;28;47006;-75
2022/09/22 01:00:01;;;;;;;;;9.50;7.75;;;;;16.35;46.17;101751.44;5054035;28;45576;-75
2022/09/22 01:02:26;;;;;;;;;8.00;7.00;;;;;16.33;45.88;101754.97;5053733;28;45441;-72
2022/09/22 01:04:52;;;;;;;;;4.75;4.75;;;;;16.01;45.63;101701.34;5053903;28;45500;-71
2022/09/22 01:07:24;;;;;;;;;7.33;5.67;;;;;16.19;45.82;101736.75;5053909;28;45464;-75
2022/09/22 01:09:50;;;;;;;;;7.67;6.33;;;;;16.15;46.02;101716.00;5052555;28;45523;-71
2022/09/22 01:12:15;;;;;;;;;6.50;6.50;;;;;16.30;46.21;101750.44;5053713;28;45485;-76
2022/09/22 01:15:16;;;;;;;;;7.00;6.50;;;;;16.31;45.80;101748.66;5053851;28;45506;-73
2022/09/22 01:18:08;;;;;;;;;7.00;6.00;;;;;16.31;45.95;101740.56;4978555;28;45550;-74
2022/09/22 01:20:46;;;;;;;;;8.33;4.67;;;;;16.29;45.81;101743.22;5044329;28;45439;-76
2022/09/22 01:23:26;;;;;;;;;9.00;6.67;;;;;16.17;45.90;101718.75;5053847;28;45528;-73
2022/09/22 01:26:27;;;;;;;;;7.67;4.67;;;;;16.29;46.51;101737.81;5053530;28;46034;-76
2022/09/22 01:29:20;;;;;;;;;6.67;6.67;;;;;16.26;46.48;101728.78;4971079;28;45352;-72
2022/09/22 01:31:54;;;;;;;;;7.75;7.50;;;;;16.25;46.14;101727.88;5051189;28;45330;-73
2022/09/22 01:34:31;;;;;;;;;7.67;7.00;;;;;16.26;46.25;101723.38;5047031;28;45386;-73
2022/09/22 01:37:22;;;;;;;;;4.33;4.33;;;;;16.25;46.06;101726.94;5068784;28;45478;-71
2022/09/22 01:39:57;;;;;;;;;9.67;8.00;;;;;15.99;46.45;101687.84;5053097;28;46687;-72
2022/09/22 01:42:26;;;;;;;;;6.33;6.33;;;;;16.23;45.95;101735.00;5052611;28;45467;-73
2022/09/22 01:45:09;;;;;;;;;5.33;5.33;;;;;16.22;45.98;101727.81;5053058;28;45438;-75
2022/09/22 01:47:44;;;;;;;;;7.25;7.25;;;;;16.21;46.02;101734.06;5055412;28;45433;-72
2022/09/22 01:50:22;;;;;;;;;5.00;4.67;;;;;16.04;46.16;101704.13;5056278;28;46642;-72
2022/09/22 01:52:47;;;;;;;;;4.00;4.00;;;;;16.18;46.02;101734.00;5056459;28;45377;-72
2022/09/22 01:55:23;;;;;;;;;8.67;6.67;;;;;16.16;46.28;101735.78;5056628;28;45521;-76
2022/09/22 01:58:01;;;;;;;;;5.67;5.67;;;;;16.15;46.53;101732.19;5056942;28;45603;-72
2022/09/22 02:00:27;;;;;;;;;5.33;5.33;;;;;16.09;46.33;101721.28;5056799;28;45756;-71
2022/09/22 02:03:01;;;;;;;;;8.33;6.67;;;;;16.12;46.74;101731.19;5056679;28;45431;-71
2022/09/22 02:05:36;;;;;;;;;7.67;5.67;;;;;16.07;46.53;101735.59;5056929;28;45321;-73
2022/09/22 02:08:09;;;;;;;;;4.67;4.67;;;;;16.05;46.92;101738.25;5051971;28;45665;-70
2022/09/22 02:10:40;;;;;;;;;6.67;6.67;;;;;16.04;46.74;101728.38;5057464;28;46696;-73
2022/09/22 02:13:05;;;;;;;;;7.67;6.67;;;;;16.02;47.03;101730.13;5057781;28;45472;-73
2022/09/22 02:18:24;;;;;;;;;9.00;5.67;;;;;15.96;46.96;101724.63;5056842;28;45524;-73
2022/09/22 02:20:50;;;;;;;;;8.67;6.67;;;;;15.76;46.76;101699.97;5055935;28;45460;-74
2022/09/22 02:23:16;;;;;;;;;7.00;5.33;;;;;15.78;47.13;101698.19;5056188;28;45446;-71
2022/09/22 02:25:43;;;;;;;;;6.00;6.00;;;;;15.89;46.70;101722.66;5055902;28;45334;-71
2022/09/22 02:28:12;;;;;;;;;7.25;6.00;;;;;15.87;46.94;101727.13;5054115;28;45279;-71
2022/09/22 02:30:39;;;;;;;;;7.00;4.33;;;;;15.76;47.03;101708.94;5056125;28;46224;-71
2022/09/22 02:33:05;;;;;;;;;8.33;5.00;;;;;15.82;47.12;101716.22;5055866;28;45358;-75
2022/09/22 02:35:37;;;;;;;;;5.50;5.00;;;;;15.69;47.10;101703.34;5054712;28;45417;-71
2022/09/22 02:38:20;;;;;;;;;5.00;5.00;;;;;15.75;47.37;101715.16;5056346;28;45458;-71
2022/09/22 02:40:57;;;;;;;;;5.00;5.00;;;;;15.40;47.38;101655.19;5055640;28;46672;-71
2022/09/22 02:43:48;;;;;;;;;6.00;6.00;;;;;15.58;47.66;101695.06;5055637;28;45409;-73
2022/09/22 02:46:29;;;;;;;;;5.00;5.00;;;;;15.60;47.73;101702.28;5055688;28;45420;-73
2022/09/22 02:49:00;;;;;;;;;5.50;5.50;;;;;15.67;47.48;101716.78;5056168;28;45304;-71
2022/09/22 02:51:28;;;;;;;;;6.50;5.00;;;;;15.41;47.46;101674.06;5050240;28;45630;-70
2022/09/22 02:53:53;;;;;;;;;4.33;4.33;;;;;15.64;47.44;101703.25;5056182;28;45850;-70
2022/09/22 02:56:18;;;;;;;;;6.00;6.00;;;;;15.60;47.77;101701.38;5056213;28;45537;-73
2022/09/22 02:58:44;;;;;;;;;6.75;6.75;;;;;15.37;47.69;101672.19;5054196;28;45374;-70
2022/09/22 03:01:09;;;;;;;;;7.75;7.00;;;;;15.53;47.89;101697.66;5055657;28;46514;-75
2022/09/22 03:03:35;;;;;;;;;8.25;5.25;;;;;15.39;47.75;101682.97;5055099;28;53479;-74
2022/09/22 03:06:00;;;;;;;;;8.00;7.00;;;;;15.52;47.87;101701.22;5055983;28;45722;-74
2022/09/22 03:08:25;;;;;;;;;8.00;6.00;;;;;15.46;48.03;101702.00;5055687;28;45453;-73
2022/09/22 03:10:51;;;;;;;;;8.00;6.33;;;;;15.46;47.98;101710.09;5055134;28;46034;-71
2022/09/22 03:13:16;;;;;;;;;6.50;6.50;;;;;15.46;47.83;101703.81;5055047;28;51830;-71
2022/09/22 03:15:42;;;;;;;;;10.50;8.00;;;;;15.46;48.11;101702.00;5055195;28;45334;-72
2022/09/22 03:18:07;;;;;;;;;8.75;6.00;;;;;15.46;48.19;101703.81;5055422;28;45528;-73
2022/09/22 03:20:33;;;;;;;;;6.25;5.00;;;;;15.31;47.82;101669.38;5054284;28;64111;-74
2022/09/22 03:22:58;;;;;;;;;5.25;5.25;;;;;15.38;48.38;101689.25;5055278;28;45487;-72
2022/09/22 03:25:23;;;;;;;;;6.33;5.33;;;;;15.29;47.94;101669.34;5055349;28;45455;-73
2022/09/22 03:27:49;;;;;;;;;7.00;7.00;;;;;15.37;47.91;101685.63;5055137;28;45386;-71
2022/09/22 03:30:14;;;;;;;;;7.50;6.75;;;;;15.38;47.99;101700.94;5055021;28;46490;-74
2022/09/22 03:32:39;;;;;;;;;5.50;5.50;;;;;15.22;48.11;101664.66;5054877;28;45436;-74
2022/09/22 03:35:06;;;;;;;;;7.50;6.25;;;;;15.30;48.36;101675.63;5054775;28;45544;-74
2022/09/22 03:37:32;;;;;;;;;5.00;3.67;;;;;15.30;48.14;101689.97;5055608;28;45455;-75
2022/09/22 03:39:57;;;;;;;;;7.50;7.50;;;;;15.01;48.19;101637.28;5054746;28;45558;-73
2022/09/22 03:42:23;;;;;;;;;8.00;6.75;;;;;15.26;48.45;101689.88;5054928;28;45332;-76
2022/09/22 03:44:48;;;;;;;;;8.25;6.75;;;;;15.11;48.63;101676.97;5054755;28;45417;-74
2022/09/22 03:47:13;;;;;;;;;7.25;6.00;;;;;15.08;48.43;101671.56;5055092;28;45380;-74
2022/09/22 03:49:39;;;;;;;;;6.75;6.75;;;;;15.01;48.53;101650.75;5054136;28;65172;-73
2022/09/22 03:52:04;;;;;;;;;4.67;4.67;;;;;15.20;48.37;101685.28;5054413;28;51434;-72
2022/09/22 03:54:30;;;;;;;;;5.00;5.00;;;;;15.23;48.53;101681.75;5054835;28;45436;-71
2022/09/22 03:56:56;;;;;;;;;10.75;7.25;;;;;15.17;48.50;101677.13;5055211;28;45623;-71
2022/09/22 03:59:21;;;;;;;;;5.00;4.33;;;;;15.16;48.47;101671.72;5054442;28;45346;-71
2022/09/22 04:01:47;;;;;;;;;6.00;4.00;;;;;15.19;48.41;101677.16;5055237;28;50000;-72
2022/09/22 04:04:12;;;;;;;;;5.00;5.00;;;;;15.22;48.47;101674.53;5055656;28;45422;-68
2022/09/22 04:06:37;;;;;;;;;7.50;7.25;;;;;15.13;48.55;101669.88;5055170;28;45306;-71
2022/09/22 04:09:03;;;;;;;;;6.00;5.67;;;;;15.05;48.41;101652.66;5055506;28;45962;-74
2022/09/22 04:11:29;;;;;;;;;7.33;6.00;;;;;15.02;48.50;101639.13;5055077;28;45378;-75
2022/09/22 04:13:54;;;;;;;;;9.50;7.50;;;;;15.12;48.74;101668.03;5052458;28;50601;-73
2022/09/22 04:16:20;;;;;;;;;6.25;6.00;;;;;14.61;48.92;101578.09;5054856;28;45404;-75
2022/09/22 04:18:45;;;;;;;;;9.33;6.67;;;;;14.92;49.15;101648.75;5054151;28;47550;-71
2022/09/22 04:21:11;;;;;;;;;6.00;5.00;;;;;15.11;48.86;101666.22;5054223;28;45397;-71
2022/09/22 04:23:36;;;;;;;;;5.00;5.00;;;;;15.09;49.39;101671.56;5053843;28;55767;-70
2022/09/22 04:26:03;;;;;;;;;6.00;6.00;;;;;15.09;48.96;101660.78;5054530;28;45463;-72
2022/09/22 04:28:29;;;;;;;;;8.75;8.75;;;;;15.07;48.99;101669.72;5053978;28;45527;-73
2022/09/22 04:30:55;;;;;;;;;7.00;7.00;;;;;14.90;49.32;101640.66;5054152;28;45424;-72
2022/09/22 04:33:20;;;;;;;;;9.25;7.50;;;;;15.06;49.07;101665.22;5054233;28;45409;-71
2022/09/22 04:35:49;;;;;;;;;6.00;6.00;;;;;14.91;49.04;101637.09;5054469;28;45540;-75
2022/09/22 04:38:15;;;;;;;;;7.25;6.25;;;;;15.00;49.14;101667.78;5053897;28;45418;-74
2022/09/22 04:40:41;;;;;;;;;9.00;6.50;;;;;15.00;49.39;101667.78;5053871;28;45548;-74
2022/09/22 04:43:06;;;;;;;;;9.50;7.75;;;;;14.86;49.14;101644.13;5052937;28;59508;-71
2022/09/22 04:45:31;;;;;;;;;12.00;8.75;;;;;14.98;49.47;101653.34;5054212;28;45554;-70
2022/09/22 04:47:57;;;;;;;;;10.25;9.00;;;;;14.92;49.33;101648.75;5053595;28;45396;-70
2022/09/22 04:50:22;;;;;;;;;8.25;8.25;;;;;14.99;49.47;101655.19;5068922;28;55614;-72
2022/09/22 04:52:50;;;;;;;;;7.25;7.25;;;;;14.88;49.57;101641.47;5053960;28;45428;-70
2022/09/22 04:55:16;;;;;;;;;7.25;4.25;;;;;14.99;49.42;101663.25;5053928;28;45458;-69
2022/09/22 04:57:55;;;;;;;;;8.75;7.50;;;;;14.77;49.62;101624.19;5053437;28;46386;-72
2022/09/22 05:00:23;;;;;;;;;7.00;7.00;;;;;14.80;49.51;101638.63;5048725;28;45586;-71
2022/09/22 05:02:48;;;;;;;;;9.25;6.50;;;;;14.95;49.67;101662.28;5053821;28;45472;-73
2022/09/22 05:05:14;;;;;;;;;6.75;6.75;;;;;14.79;49.80;101635.91;5054522;28;45329;-72
2022/09/22 05:07:45;;;;;;;;;5.50;5.50;;;;;14.78;49.60;101636.75;5053951;28;45357;-69
2022/09/22 05:10:11;;;;;;;;;7.00;5.75;;;;;14.87;49.93;101671.97;5054245;28;45503;-71
2022/09/22 05:12:43;;;;;;;;;8.25;6.75;;;;;14.82;50.17;101663.78;5053986;28;45429;-73
2022/09/22 05:15:11;;;;;;;;;6.25;6.25;;;;;14.73;49.78;101647.41;5053633;28;45591;-73
2022/09/22 05:17:36;;;;;;;;;11.25;9.00;;;;;14.64;50.11;101631.06;5052874;28;46229;-71
2022/09/22 05:20:04;;;;;;;;;10.25;8.75;;;;;14.85;50.17;101677.31;5053157;28;45633;-73
2022/09/22 05:22:30;;;;;;;;;8.50;8.50;;;;;14.62;50.00;101638.16;5055076;28;45304;-72
2022/09/22 05:24:55;;;;;;;;;15.50;12.50;;;;;14.83;50.35;101672.75;5057140;28;45335;-72
2022/09/22 05:27:21;;;;;;;;;19.00;18.25;;;;;14.85;51.72;101681.75;5056221;28;46111;-72
2022/09/22 05:29:46;;;;;;;;;8.50;8.50;;;;;14.73;50.93;101660.84;5056689;28;45390;-73
2022/09/22 05:32:12;;;;;;;;;10.00;7.25;;;;;14.82;51.04;101682.59;5056681;28;45908;-72
2022/09/22 05:34:37;;;;;;;;;7.75;7.50;;;;;14.81;50.88;101679.88;5056815;28;45452;-71
2022/09/22 05:37:02;;;;;;;;;7.00;7.00;;;;;14.79;51.24;101681.63;5055892;28;64156;-71
2022/09/22 05:39:27;;;;;;;;;11.25;11.25;;;;;14.73;50.97;101685.06;5056605;28;45510;-71
2022/09/22 05:41:53;;;;;;;;;12.25;10.00;;;;;14.78;50.55;101699.53;5055782;28;55902;-72
2022/09/22 05:44:20;;;;;;;;;15.25;10.25;;;;;14.74;50.48;101703.94;5056890;28;45484;-71
2022/09/22 05:46:46;;;;;;;;;12.50;8.75;;;;;14.64;50.97;101680.38;5056050;28;45476;-71
2022/09/22 05:49:11;;;;;;;;;10.75;9.50;;;;;14.67;50.96;101695.69;5056187;28;45274;-74
2022/09/22 05:51:36;;;;;;;;;8.75;7.25;;;;;14.46;50.55;101653.91;5055899;28;58630;-74
2022/09/22 05:54:02;;;;;;;;;15.50;11.50;;;;;14.61;51.14;101679.41;5072352;27;45314;-74
2022/09/22 05:56:27;;;;;;;;;12.75;10.25;;;;;14.69;50.53;101696.63;5057274;28;45516;-71
2022/09/22 05:58:53;;;;;;;;;24.50;19.50;;;;;14.65;50.97;101692.03;5075507;28;46424;-75
2022/09/22 06:01:18;;;;;;;;;12.75;12.00;;;;;14.24;50.76;101612.16;5059803;28;45285;-73
2022/09/22 06:03:43;;;;;;;;;14.25;12.25;;;;;14.62;50.77;101690.19;5062045;28;45270;-71
2022/09/22 06:06:09;;;;;;;;;49.25;41.75;;;;;14.69;51.20;101705.59;5060165;28;46079;-74
2022/09/22 06:08:34;;;;;;;;;17.25;14.25;;;;;14.65;50.97;101697.41;5057001;28;52379;-75
2022/09/22 06:10:59;;;;;;;;;20.75;15.00;;;;;14.71;51.13;101701.16;5056003;27;45562;-71
2022/09/22 06:13:25;;;;;;;;;18.25;15.50;;;;;14.50;51.21;101661.19;5056305;28;45401;-74
2022/09/22 06:15:50;;;;;;;;;16.50;12.75;;;;;14.62;52.04;101694.66;5055860;28;46077;-71
2022/09/22 06:18:19;;;;;;;;;21.25;18.25;;;;;14.62;51.61;101687.50;5055823;28;45504;-72
2022/09/22 06:20:45;;;;;;;;;18.75;16.00;;;;;14.68;51.23;101702.88;5055731;28;45334;-70
2022/09/22 06:23:12;;;;;;;;;15.00;13.00;;;;;14.63;51.33;101691.09;5055546;28;45505;-73
2022/09/22 06:25:37;;;;;;;;;14.50;14.50;;;;;14.71;51.33;101694.88;5055425;28;45555;-74
2022/09/22 06:28:06;;;;;;;;;12.25;11.00;;;;;14.72;50.87;101691.34;5055276;28;45447;-74
2022/09/22 06:30:33;;;;;;;;;22.50;17.00;;;;;14.72;50.99;101685.97;5055692;28;45366;-74
2022/09/22 06:32:58;;;;;;;;;18.25;14.25;;;;;14.66;51.02;101678.63;5055033;28;45561;-74
2022/09/22 06:35:24;;;;;;;;;18.25;18.00;;;;;14.76;51.34;101684.25;5070214;28;46131;-74
2022/09/22 06:37:57;;;;;;;;;18.25;14.50;;;;;14.52;51.12;101651.38;5055311;28;45411;-74
2022/09/22 06:40:24;;;;;;;;;18.00;13.75;;;;;14.74;50.61;101684.22;5055660;28;45510;-73
2022/09/22 06:42:56;;;;;;;;;15.25;12.75;;;;;14.79;50.65;101690.59;5055416;28;45488;-74
2022/09/22 06:45:21;;;;;;;;;17.50;12.50;;;;;14.73;50.92;101674.31;5055278;28;46276;-74
2022/09/22 06:47:46;;;;;;;;;14.25;13.00;;;;;14.72;50.15;101684.16;5054826;28;45377;-75
2022/09/22 06:50:12;;;;;;;;;14.50;14.50;;;;;14.81;50.29;101687.94;5055129;28;45482;-71
2022/09/22 06:52:37;;;;;;;;;18.50;16.75;;;;;14.37;50.60;101608.00;5055788;28;45290;-74
2022/09/22 06:55:03;;;;;;;;;18.50;15.25;;;;;14.82;50.42;101679.91;5054737;28;46041;-71
2022/09/22 06:57:29;;;;;;;;;15.50;13.00;;;;;14.71;50.20;101654.53;5054725;28;45509;-75
2022/09/22 06:59:55;;;;;;;;;20.00;15.25;;;;;14.69;50.40;101659.88;5070491;28;45490;-75
2022/09/22 07:02:23;;;;;;;;;21.00;16.75;;;;;14.85;50.58;101695.19;5055240;28;45368;-74
2022/09/22 07:04:49;;;;;;;;;20.75;17.00;;;;;14.88;49.77;101690.84;5054807;28;45503;-74
2022/09/22 07:07:15;;;;;;;;;20.25;15.75;;;;;14.92;50.00;101695.41;5054745;28;45540;-71
2022/09/22 07:09:40;;;;;;;;;42.75;36.00;;;;;14.81;49.59;101667.31;5054830;28;45540;-75
2022/09/22 07:12:06;;;;;;;;;22.75;19.50;;;;;14.99;49.35;101692.88;5054232;28;55586;-72
2022/09/22 07:14:31;;;;;;;;;40.00;33.25;;;;;14.90;49.81;101674.72;5054556;28;46073;-72
2022/09/22 07:16:56;;;;;;;;;26.75;18.25;;;;;14.98;48.87;101683.88;5054991;28;44817;-72
2022/09/22 07:19:22;;;;;;;;;16.00;14.75;;;;;14.90;49.41;101664.88;5055220;28;45397;-72
2022/09/22 07:21:47;;;;;;;;;18.50;18.50;;;;;15.08;49.07;101693.97;5055829;28;45526;-74
2022/09/22 07:24:13;;;;;;;;;27.00;22.75;;;;;15.08;49.26;101696.69;5070621;27;45982;-73
2022/09/22 07:26:39;;;;;;;;;22.25;16.50;;;;;14.88;49.04;101652.22;5054413;28;45477;-73
2022/09/22 07:29:07;;;;;;;;;23.25;20.50;;;;;15.18;49.26;101692.41;5054026;28;45571;-74
2022/09/22 07:31:33;;;;;;;;;28.25;23.25;;;;;15.26;49.18;101689.88;5052440;28;45363;-74
2022/09/22 07:33:59;;;;;;;;;19.00;16.50;;;;;14.91;48.49;101620.94;5054106;28;46275;-74
2022/09/22 07:36:27;;;;;;;;;39.25;33.25;;;;;15.38;48.42;101690.16;5054298;28;45349;-75
2022/09/22 07:38:56;;;;;;;;;26.75;22.25;;;;;15.15;48.81;101646.59;5054685;28;45519;-72
2022/09/22 07:41:28;;;;;;;;;35.50;32.25;;;;;15.48;48.36;101686.78;5054443;28;45420;-71
2022/09/22 07:43:56;;;;;;;;;51.75;39.00;;;;;15.51;48.23;101680.56;5054110;28;46392;-71
2022/09/22 07:46:22;;;;;;;;;37.75;31.00;;;;;15.63;47.89;101690.69;5052281;28;45388;-74
2022/09/22 07:48:48;;;;;;;;;21.00;16.75;;;;;15.52;47.53;101666.19;5053822;28;45366;-75
2022/09/22 07:51:22;;;;;;;;;20.50;16.00;;;;;15.75;47.34;101690.91;5054745;28;45552;-72
2022/09/22 07:53:53;;;;;;;;;18.75;18.75;;;;;15.41;47.17;101617.53;5054212;28;45524;-74
2022/09/22 07:56:20;;;;;;;;;20.25;19.00;;;;;15.78;47.00;101677.53;5056877;28;45382;-73
2022/09/22 07:58:49;;;;;;;;;13.75;13.50;;;;;15.83;47.25;101683.03;5056989;28;45683;-72
2022/09/22 08:01:15;;;;;;;;;25.50;23.00;;;;;15.82;46.72;101667.72;5058235;28;45504;-73
2022/09/22 08:03:41;;;;;;;;;23.50;20.50;;;;;16.01;46.58;101690.56;5056556;28;47907;-75
2022/09/22 08:06:09;;;;;;;;;21.50;17.75;;;;;15.89;46.41;101653.53;5053823;28;45403;-75
2022/09/22 08:08:40;;;;;;;;;17.00;17.00;;;;;15.89;46.35;101637.34;5054202;28;45568;-71
2022/09/22 08:11:08;;;;;;;;;19.00;17.25;;;;;15.98;46.06;101648.28;5053852;28;45582;-71
2022/09/22 08:13:36;;;;;;;;;16.25;12.75;;;;;16.10;45.87;101663.81;5053964;28;46185;-74
2022/09/22 08:16:03;;;;;;;;;16.50;15.75;;;;;16.06;45.94;101634.94;5069326;28;45927;-71
2022/09/22 08:18:28;;;;;;;;;24.00;15.50;;;;;16.31;45.05;101673.13;5053661;28;45529;-74
2022/09/22 08:20:54;;;;;;;;;19.75;16.00;;;;;16.38;45.22;101683.13;5053510;28;45492;-72
2022/09/22 08:23:19;;;;;;;;;19.75;15.25;;;;;16.15;45.00;101645.91;5052127;28;46796;-75
2022/09/22 08:25:44;;;;;;;;;28.50;18.50;;;;;16.41;45.53;101680.50;5053238;28;45499;-70
2022/09/22 08:28:10;;;;;;;;;16.25;16.25;;;;;16.34;45.84;101657.00;5052967;28;54640;-74
2022/09/22 08:30:38;;;;;;;;;21.75;17.50;;;;;16.52;45.29;101668.09;5054230;28;45687;-72
2022/09/22 08:33:03;;;;;;;;;18.50;17.25;;;;;16.63;44.73;101659.28;5051587;28;47751;-75
2022/09/22 08:35:28;;;;;;;;;20.75;18.75;;;;;16.62;44.68;101660.19;5053742;28;45552;-73
2022/09/22 08:37:54;;;;;;;;;27.75;23.25;;;;;16.69;44.20;101678.28;5053408;28;46046;-75
2022/09/22 08:40:24;;;;;;;;;25.00;22.25;;;;;16.72;44.55;101684.63;5053543;28;45620;-73
2022/09/22 08:42:53;;;;;;;;;17.00;16.00;;;;;16.71;44.66;101679.19;5054109;28;46221;-74
2022/09/22 08:45:34;;;;;;;;;20.00;16.25;;;;;16.77;44.53;101673.91;5053288;28;45649;-75
2022/09/22 08:53:55;;;;;;;;;17.25;16.75;;;;;17.09;43.92;101666.34;5053082;28;45766;-72
2022/09/22 08:56:30;;;;;;;;;16.25;16.25;;;;;17.25;43.75;101671.94;5052345;28;45460;-75
2022/09/22 08:59:13;;;;;;;;;21.50;18.00;;;;;17.37;43.68;101673.91;5050930;28;45447;-72
2022/09/22 09:02:08;;;;;;;;;25.00;22.25;;;;;17.51;43.02;101669.59;5053576;28;45322;-74
2022/09/22 09:04:41;;;;;;;;;19.00;16.75;;;;;17.63;42.68;101672.41;5053203;28;46162;-74
2022/09/22 09:07:22;;;;;;;;;20.75;17.50;;;;;17.67;42.27;101671.59;5047839;28;45470;-74
2022/09/22 09:10:27;;;;;;;;;21.75;15.00;;;;;17.69;42.29;101656.28;5052938;28;45464;-75
2022/09/22 09:13:23;;;;;;;;;19.25;14.75;;;;;17.94;41.52;101669.22;5005961;28;45537;-74
2022/09/22 09:16:12;;;;;;;;;16.00;14.75;;;;;17.97;41.24;101656.63;5052693;28;45432;-73
2022/09/22 09:18:52;;;;;;;;;18.25;13.00;;;;;17.92;41.25;101625.94;5047705;28;45624;-72
2022/09/22 09:21:17;;;;;;;;;19.75;19.00;;;;;18.12;40.96;101645.06;5053095;28;45690;-74
2022/09/22 09:23:51;;;;;;;;;54.25;44.75;;;;;18.33;40.66;101659.66;5053454;28;45601;-74
2022/09/22 09:26:19;;;;;;;;;16.00;13.75;;;;;18.35;40.60;101649.78;5052471;28;45817;-73
2022/09/22 09:28:58;;;;;;;;;12.75;10.75;;;;;18.58;40.55;101669.81;5052320;28;45448;-71
2022/09/22 09:31:53;;;;;;;;;13.25;13.25;;;;;18.67;39.79;101659.97;5052280;28;45463;-73
2022/09/22 09:34:27;;;;;;;;;15.67;11.67;;;;;18.57;39.90;101640.03;5046877;28;45513;-73
2022/09/22 09:37:11;;;;;;;;;9.67;9.67;;;;;18.83;39.51;101656.50;5052220;28;47227;-74
2022/09/22 09:39:40;;;;;;;;;8.33;6.67;;;;;18.89;38.15;101656.56;5052670;28;45551;-73
2022/09/22 09:42:24;;;;;;;;;7.67;7.67;;;;;19.24;38.73;101644.09;5052588;28;45463;-72
2022/09/22 09:44:52;;;;;;;;;5.33;5.00;;;;;20.00;36.76;101646.19;5046984;28;45373;-74
2022/09/22 09:47:55;;;;;;;;;8.67;8.67;;;;;20.59;35.41;101649.84;5052038;28;46864;-73
2022/09/22 09:50:22;;;;;;;;;13.33;12.67;;;;;20.69;35.00;101630.84;5052005;28;45306;-74
2022/09/22 09:52:48;;;;;;;;;6.00;6.00;;;;;20.87;34.47;101644.41;5052895;28;45420;-70
2022/09/22 09:55:24;;;;;;;;;15.00;12.00;;;;;20.89;34.72;101645.31;5054468;28;45472;-72
2022/09/22 09:58:01;;;;;;;;;11.00;11.00;;;;;20.87;34.65;101643.50;5054508;28;46154;-73
2022/09/22 10:00:30;;;;;;;;;23.75;20.50;;;;;20.82;34.46;101629.03;5055252;28;45482;-74
2022/09/22 10:03:10;;;;;;;;;14.67;11.33;;;;;20.81;34.29;101630.84;5055256;28;45365;-72
2022/09/22 10:05:36;;;;;;;;;11.33;11.33;;;;;20.62;34.45;101608.19;5069811;28;45583;-73
2022/09/22 10:08:19;;;;;;;;;7.00;6.00;;;;;20.78;33.77;101636.28;5068300;27;46784;-72
2022/09/22 10:10:45;;;;;;;;;11.33;9.33;;;;;20.67;33.23;101608.22;5055831;28;45351;-74
2022/09/22 10:13:10;;;;;;;;;5.00;5.00;;;;;20.70;33.44;101628.13;5055882;28;45342;-75
2022/09/22 10:15:38;;;;;;;;;6.67;5.33;;;;;20.58;33.87;101617.25;5055465;28;45392;-72
2022/09/22 10:18:25;;;;;;;;;7.67;7.67;;;;;20.52;33.84;101619.97;5055167;28;45377;-73
2022/09/22 10:21:17;;;;;;;;;7.00;5.33;;;;;20.37;33.52;101604.59;5055190;28;45500;-74
2022/09/22 10:23:45;;;;;;;;;7.00;5.00;;;;;20.49;33.17;101617.25;5050806;28;45501;-74
2022/09/22 10:26:25;;;;;;;;;5.67;5.67;;;;;20.28;33.49;101567.53;5070771;28;45756;-73
2022/09/22 10:29:18;;;;;;;;;11.33;9.00;;;;;20.63;32.91;101612.78;5054521;28;45405;-75
2022/09/22 10:32:02;;;;;;;;;4.67;4.67;;;;;20.66;33.08;101601.91;5055276;28;45424;-72
2022/09/22 10:34:34;;;;;;;;;5.00;4.00;;;;;20.60;32.61;101600.03;5054617;28;45330;-71
2022/09/22 10:37:02;;;;;;;;;6.00;6.00;;;;;20.62;32.42;101603.69;5070401;28;45489;-72
2022/09/22 10:39:48;;;;;;;;;11.33;9.00;;;;;20.57;32.36;101604.59;5054789;28;46318;-72
2022/09/22 10:42:24;;;;;;;;;7.00;7.00;;;;;20.53;32.53;101600.97;5054920;28;45287;-74
2022/09/22 10:44:58;;;;;;;;;3.00;3.00;;;;;20.69;32.20;101599.19;5055390;28;45468;-75
2022/09/22 10:47:57;;;;;;;;;5.00;5.00;;;;;20.78;31.58;101591.00;5051416;28;45523;-71
2022/09/22 10:50:44;;;;;;;;;3.00;3.00;;;;;20.86;31.93;101580.13;5039344;28;46660;-72
2022/09/22 10:53:26;;;;;;;;;9.00;7.00;;;;;20.94;31.97;101581.00;5051141;28;45475;-71
2022/09/22 10:56:24;;;;;;;;;9.67;6.33;;;;;20.91;31.51;101552.97;5055020;28;45646;-72
2022/09/22 10:58:56;;;;;;;;;2.33;2.00;;;;;20.99;31.37;101561.97;5051993;28;45593;-75
2022/09/22 11:01:34;;;;;;;;;7.00;6.00;;;;;21.07;30.87;101564.66;5054466;28;45616;-73
2022/09/22 11:04:26;;;;;;;;;6.33;5.33;;;;;21.11;30.95;101564.63;5054673;28;45687;-73
2022/09/22 11:13:33;;;;;;;;;3.33;3.33;;;;;21.23;30.97;101557.34;5045911;28;45991;-72
2022/09/22 11:16:01;;;;;;;;;4.33;3.00;;;;;21.25;30.82;101559.16;5045669;28;45433;-75
2022/09/22 11:18:30;;;;;;;;;6.00;5.00;;;;;21.25;30.93;101552.78;5053175;28;45516;-72
2022/09/22 11:21:12;;;;;;;;;4.33;4.00;;;;;21.20;30.21;101535.63;5054186;28;45597;-72
2022/09/22 11:23:56;;;;;;;;;3.67;3.33;;;;;21.22;30.33;101553.72;5054666;28;45831;-72
2022/09/22 11:26:39;;;;;;;;;3.00;2.00;;;;;21.25;30.72;101547.34;5053655;28;45462;-74
2022/09/22 11:29:08;;;;;;;;;3.00;3.00;;;;;21.13;30.94;101532.91;5048602;28;45471;-72
2022/09/22 11:32:02;;;;;;;;;2.67;2.67;;;;;21.11;31.04;101534.75;5054901;28;45549;-71
2022/09/22 11:35:11;;;;;;;;;5.00;5.00;;;;;21.14;31.29;101542.00;5053941;28;46443;-72
2022/09/22 11:38:19;;;;;;;;;5.00;5.00;;;;;21.19;31.59;101539.25;5054114;28;45287;-73
2022/09/22 11:40:59;;;;;;;;;3.00;1.67;;;;;21.19;31.17;101541.97;5054306;28;45528;-75
2022/09/22 11:43:31;;;;;;;;;8.00;5.67;;;;;21.15;31.51;101538.34;5069728;28;45433;-75
2022/09/22 11:46:09;;;;;;;;;5.00;3.67;;;;;21.10;31.52;101535.69;5054587;28;46238;-72
2022/09/22 11:48:43;;;;;;;;;5.33;4.00;;;;;21.06;31.54;101531.16;5053225;28;45924;-72
2022/09/22 11:51:36;;;;;;;;;6.00;4.33;;;;;21.04;31.51;101532.97;5047783;28;45630;-72